Time;durP1;ratioP1;P1;durP2;ratioP2;P2;SDS_P1;SDS_P2;PMS_P1;PMS_P2;Temp;Humidity;BMP_temperature;BMP_pressure;BME280_temperature;BME280_humidity;BME280_pressure;Samples;Min_cycle;Max_cycle;Signal;HPM_P1;HPM_P2
2023/03/26 00:01:08;;;;;;;74.93;51.03;;;16.30;77.10;;;;;;4962402;28;90676;-67
2023/03/26 00:03:36;;;;;;;76.93;51.13;;;16.30;77.00;;;;;;4961450;28;92345;-64
2023/03/26 00:06:13;;;;;;;74.15;50.65;;;16.20;76.90;;;;;;4963258;28;95276;-64
2023/03/26 00:08:41;;;;;;;76.50;50.80;;;16.30;77.20;;;;;;4973769;28;90093;-64
2023/03/26 00:11:09;;;;;;;76.18;50.90;;;16.30;76.90;;;;;;4969042;28;90745;-67
2023/03/26 00:13:35;;;;;;;75.45;50.83;;;16.20;77.10;;;;;;4976194;28;89509;-66
2023/03/26 00:16:02;;;;;;;75.30;50.83;;;16.20;77.00;;;;;;4966490;28;89915;-66
2023/03/26 00:18:30;;;;;;;76.75;51.28;;;16.20;77.10;;;;;;4962383;28;90432;-61
2023/03/26 00:21:02;;;;;;;71.68;50.30;;;16.20;76.90;;;;;;4961457;28;90653;-66
2023/03/26 00:23:29;;;;;;;73.97;50.72;;;16.20;77.00;;;;;;4965028;28;89892;-67
2023/03/26 00:25:55;;;;;;;72.93;50.45;;;16.20;76.90;;;;;;4965064;28;89775;-67
2023/03/26 00:28:22;;;;;;;74.80;51.15;;;16.10;76.60;;;;;;4966875;28;90965;-67
2023/03/26 00:30:48;;;;;;;76.28;50.35;;;16.10;76.90;;;;;;4961044;28;94740;-66
2023/03/26 00:33:18;;;;;;;75.43;50.65;;;16.10;76.80;;;;;;4964022;28;89829;-66
2023/03/26 00:35:45;;;;;;;73.55;50.17;;;16.10;76.70;;;;;;4961284;28;89739;-68
2023/03/26 00:38:14;;;;;;;74.38;50.92;;;16.10;76.80;;;;;;4958301;28;90942;-60
2023/03/26 00:40:43;;;;;;;75.25;51.03;;;16.00;76.90;;;;;;4967539;28;90117;-64
2023/03/26 00:43:17;;;;;;;74.88;50.63;;;16.10;76.80;;;;;;4966645;28;89882;-62
2023/03/26 00:45:47;;;;;;;74.53;51.20;;;16.10;76.90;;;;;;4968495;28;89448;-59
2023/03/26 00:48:14;;;;;;;75.57;50.75;;;16.00;76.80;;;;;;4959208;28;91014;-63
2023/03/26 00:50:40;;;;;;;80.70;50.92;;;16.00;76.90;;;;;;4963209;28;91756;-66
2023/03/26 00:53:07;;;;;;;74.07;50.55;;;16.00;76.80;;;;;;4964637;28;91153;-59
2023/03/26 00:55:34;;;;;;;76.22;50.42;;;16.00;76.70;;;;;;4962345;28;90526;-65
2023/03/26 00:58:00;;;;;;;73.80;50.35;;;16.00;76.70;;;;;;4962443;28;90035;-62
2023/03/26 01:00:33;;;;;;;74.22;50.63;;;16.00;76.80;;;;;;4963967;28;90199;-66
2023/03/26 01:03:00;;;;;;;73.93;50.97;;;16.00;76.70;;;;;;4959787;28;90170;-65
2023/03/26 01:05:34;;;;;;;73.55;50.88;;;16.00;76.60;;;;;;4962089;28;89946;-65
2023/03/26 01:08:16;;;;;;;73.53;50.75;;;16.00;76.60;;;;;;4965763;28;90075;-65
2023/03/26 01:10:43;;;;;;;;;;;16.00;76.50;;;;;;4968444;28;91029;-64
2023/03/26 01:13:09;;;;;;;74.63;50.63;;;16.00;76.50;;;;;;4968712;28;90046;-64
2023/03/26 01:15:38;;;;;;;72.85;50.03;;;16.00;76.70;;;;;;4970051;28;90228;-63
2023/03/26 01:18:15;;;;;;;76.25;50.60;;;15.90;76.30;;;;;;4985813;22;92431;-78
2023/03/26 01:21:03;;;;;;;72.97;49.78;;;15.90;76.40;;;;;;4940552;28;90438;-79
2023/03/26 01:23:56;;;;;;;74.78;50.22;;;16.00;77.10;;;;;;4942365;28;90454;-80
2023/03/26 01:26:56;;;;;;;73.75;50.42;;;15.90;76.40;;;;;;4959553;28;89449;-81
2023/03/26 01:29:34;;;;;;;72.65;50.58;;;15.90;76.50;;;;;;4914137;28;93448;-81
2023/03/26 01:32:20;;;;;;;74.00;50.22;;;15.90;76.50;;;;;;4945823;28;89724;-79
2023/03/26 01:35:14;;;;;;;75.68;50.83;;;15.90;76.40;;;;;;4951391;28;90261;-81
2023/03/26 01:38:09;;;;;;;73.78;50.13;;;15.90;76.50;;;;;;4960225;28;88572;-82
2023/03/26 01:40:45;;;;;;;72.40;50.15;;;15.90;76.30;;;;;;4933230;28;91430;-80
2023/03/26 01:43:25;;;;;;;74.40;50.38;;;15.90;76.50;;;;;;4954304;28;89340;-79
2023/03/26 01:45:52;;;;;;;73.30;50.40;;;15.90;76.20;;;;;;4961542;28;90127;-80
2023/03/26 01:48:18;;;;;;;72.55;50.25;;;15.80;76.50;;;;;;4953299;28;89248;-80
2023/03/26 01:50:44;;;;;;;72.72;49.97;;;15.90;76.00;;;;;;4955132;28;90753;-81
2023/03/26 01:53:11;;;;;;;73.00;49.97;;;15.80;77.10;;;;;;4953705;28;91645;-81
2023/03/26 01:56:09;;;;;;;72.32;50.40;;;15.80;76.20;;;;;;4953189;28;89179;-79
2023/03/26 01:58:35;;;;;;;72.20;50.42;;;15.80;76.10;;;;;;4957258;28;89397;-80
2023/03/26 02:01:28;;;;;;;72.85;50.35;;;15.80;76.30;;;;;;4952766;28;89096;-82
2023/03/26 02:04:06;;;;;;;71.82;50.22;;;15.80;76.10;;;;;;4950592;28;91887;-81
2023/03/26 02:06:46;;;;;;;72.63;50.30;;;15.70;76.30;;;;;;4953972;28;89574;-81
2023/03/26 02:09:19;;;;;;;73.63;50.63;;;15.70;76.60;;;;;;4952081;28;89347;-79
2023/03/26 02:11:46;;;;;;;74.97;50.53;;;15.70;76.40;;;;;;4953836;28;93405;-80
2023/03/26 02:14:13;;;;;;;73.15;50.38;;;15.70;76.00;;;;;;4953567;28;90894;-78
2023/03/26 02:16:39;;;;;;;74.10;50.15;;;15.70;76.30;;;;;;4951426;28;89511;-81
2023/03/26 02:19:08;;;;;;;72.38;50.35;;;15.70;76.00;;;;;;4962360;28;88655;-79
2023/03/26 02:21:34;;;;;;;74.53;50.47;;;15.70;76.20;;;;;;4951131;28;91110;-80
2023/03/26 02:24:03;;;;;;;72.75;50.28;;;15.70;76.10;;;;;;4949348;28;94186;-79
2023/03/26 02:26:31;;;;;;;72.90;50.47;;;15.70;76.00;;;;;;4950645;28;90729;-80
2023/03/26 02:28:58;;;;;;;72.60;50.13;;;15.70;76.00;;;;;;4954737;28;88522;-78
2023/03/26 02:31:25;;;;;;;75.80;50.50;;;15.70;75.90;;;;;;4952308;28;90651;-81
2023/03/26 02:33:52;;;;;;;73.47;50.35;;;15.70;76.20;;;;;;4950678;28;89116;-80
2023/03/26 02:36:20;;;;;;;71.85;49.90;;;15.70;76.10;;;;;;4956389;28;90982;-79
2023/03/26 02:38:46;;;;;;;73.03;50.05;;;15.70;75.70;;;;;;4955126;28;89892;-80
2023/03/26 02:41:12;;;;;;;73.65;50.15;;;15.70;75.70;;;;;;4957585;28;89377;-79
2023/03/26 02:43:37;;;;;;;74.88;50.35;;;15.60;76.00;;;;;;4957005;28;90062;-79
2023/03/26 02:46:03;;;;;;;73.18;50.10;;;15.60;76.20;;;;;;4954060;28;89641;-82
2023/03/26 02:48:30;;;;;;;73.07;50.03;;;15.60;75.90;;;;;;4952647;28;89077;-82
2023/03/26 02:50:56;;;;;;;77.13;50.45;;;15.60;76.00;;;;;;4961503;28;89920;-80
2023/03/26 02:53:22;;;;;;;72.82;50.45;;;15.60;76.20;;;;;;4942865;28;89022;-80
2023/03/26 02:55:49;;;;;;;72.97;50.45;;;15.60;75.80;;;;;;4954527;28;89746;-80
2023/03/26 02:58:16;;;;;;;72.15;50.00;;;15.60;76.20;;;;;;4955769;28;89260;-79
2023/03/26 03:00:42;;;;;;;72.47;50.35;;;15.60;75.70;;;;;;4959496;28;92262;-80
2023/03/26 03:03:08;;;;;;;74.72;50.67;;;15.60;75.90;;;;;;4958412;28;90062;-81
2023/03/26 03:05:36;;;;;;;73.47;50.38;;;15.50;76.00;;;;;;4954039;28;90590;-79
2023/03/26 03:08:04;;;;;;;72.90;50.13;;;15.60;76.10;;;;;;4952655;28;89368;-82
2023/03/26 03:10:31;;;;;;;73.70;50.33;;;15.60;75.80;;;;;;4951140;28;90336;-81
2023/03/26 03:12:57;;;;;;;72.07;49.90;;;15.60;75.90;;;;;;4960035;28;89133;-81
2023/03/26 03:15:23;;;;;;;72.10;50.35;;;15.60;75.70;;;;;;4954485;28;90177;-80
2023/03/26 03:17:49;;;;;;;71.63;50.03;;;15.60;75.70;;;;;;4951385;28;89935;-81
2023/03/26 03:20:15;;;;;;;73.05;50.08;;;15.50;75.80;;;;;;4949923;28;89246;-82
2023/03/26 03:22:41;;;;;;;74.07;50.10;;;15.50;75.90;;;;;;4947093;28;94047;-78
2023/03/26 03:25:13;;;;;;;72.85;50.15;;;15.50;75.90;;;;;;4952814;28;90304;-80
2023/03/26 03:27:40;;;;;;;75.05;50.15;;;15.50;75.70;;;;;;4948942;28;89723;-80
2023/03/26 03:30:07;;;;;;;75.88;50.13;;;15.50;75.60;;;;;;4949122;28;89087;-79
2023/03/26 03:32:33;;;;;;;71.72;50.03;;;15.50;75.60;;;;;;4948465;28;90293;-82
2023/03/26 03:34:58;;;;;;;74.45;50.17;;;15.50;75.50;;;;;;4953841;28;90483;-82
2023/03/26 03:37:25;;;;;;;73.95;50.33;;;15.50;75.50;;;;;;4956019;28;90193;-82
2023/03/26 03:39:51;;;;;;;74.13;50.17;;;15.50;75.60;;;;;;4948913;28;89327;-81
2023/03/26 03:42:17;;;;;;;71.88;49.95;;;15.50;75.60;;;;;;4954114;28;88905;-83
2023/03/26 03:44:43;;;;;;;71.43;49.60;;;15.50;75.40;;;;;;4948068;28;89938;-81
2023/03/26 03:47:12;;;;;;;72.32;49.95;;;15.50;75.50;;;;;;4949848;28;89816;-81
2023/03/26 03:49:41;;;;;;;74.07;50.53;;;15.50;75.40;;;;;;4957002;28;90073;-79
2023/03/26 03:52:06;;;;;;;74.03;50.63;;;15.50;75.40;;;;;;4950017;28;90341;-80
2023/03/26 03:57:00;;;;;;;71.78;49.90;;;15.50;75.40;;;;;;4989844;28;90898;-58
2023/03/26 03:59:26;;;;;;;73.75;50.63;;;15.50;75.40;;;;;;4996935;28;90577;-58
2023/03/26 04:01:52;;;;;;;70.80;50.08;;;15.50;75.30;;;;;;4992522;28;89776;-58
2023/03/26 04:04:17;;;;;;;72.28;50.08;;;15.50;75.40;;;;;;4996081;28;93110;-58
2023/03/26 04:06:43;;;;;;;73.35;50.10;;;15.50;75.50;;;;;;4994181;28;89348;-59
2023/03/26 04:09:09;;;;;;;71.57;49.90;;;15.40;75.20;;;;;;4995207;28;89563;-57
2023/03/26 04:11:35;;;;;;;71.75;50.17;;;15.40;75.50;;;;;;4995636;28;90062;-58
2023/03/26 04:14:01;;;;;;;75.38;50.47;;;15.40;75.40;;;;;;4996579;28;90551;-59
2023/03/26 04:16:27;;;;;;;72.07;49.78;;;15.40;75.50;;;;;;4997748;28;89717;-57
2023/03/26 04:18:52;;;;;;;71.75;50.42;;;15.50;75.60;;;;;;4992584;28;90169;-59
2023/03/26 04:21:18;;;;;;;71.97;50.40;;;15.50;75.30;;;;;;4985365;28;90459;-59
2023/03/26 04:23:44;;;;;;;71.38;49.80;;;15.50;75.30;;;;;;4993603;28;89572;-57
2023/03/26 04:26:17;;;;;;;72.25;49.72;;;15.50;75.40;;;;;;4991678;28;91141;-57
2023/03/26 04:28:53;;;;;;;71.07;50.35;;;15.40;75.40;;;;;;4989812;28;90993;-58
2023/03/26 04:31:23;;;;;;;73.85;50.35;;;15.40;75.60;;;;;;4986348;28;89245;-58
2023/03/26 04:33:53;;;;;;;71.88;50.13;;;15.40;75.50;;;;;;4991991;28;89489;-59
2023/03/26 04:36:25;;;;;;;72.90;50.15;;;15.40;75.30;;;;;;4994963;28;89842;-58
2023/03/26 04:38:52;;;;;;;72.65;49.85;;;15.40;75.30;;;;;;4991534;28;94786;-57
2023/03/26 04:41:21;;;;;;;70.50;49.95;;;15.40;75.50;;;;;;4998352;28;90072;-58
2023/03/26 04:43:49;;;;;;;71.78;50.15;;;15.40;75.40;;;;;;4998350;28;89504;-58
2023/03/26 04:46:22;;;;;;;71.15;49.60;;;15.40;75.30;;;;;;4999483;28;89766;-59
2023/03/26 04:48:49;;;;;;;73.35;50.15;;;15.40;75.40;;;;;;5001402;27;90178;-58
2023/03/26 04:51:16;;;;;;;71.68;49.88;;;15.40;75.20;;;;;;4999150;28;89463;-59
2023/03/26 04:54:01;;;;;;;71.82;49.92;;;15.40;75.20;;;;;;5003737;28;89457;-56
2023/03/26 04:56:43;;;;;;;70.75;49.85;;;15.40;75.30;;;;;;4997608;28;88671;-57
2023/03/26 04:59:12;;;;;;;;;;;15.30;75.20;;;;;;4998150;28;95488;-57
2023/03/26 05:01:39;;;;;;;71.40;49.65;;;15.30;75.30;;;;;;5000872;28;94632;-59
2023/03/26 05:04:04;;;;;;;71.63;49.75;;;15.30;75.30;;;;;;4995864;28;90825;-57
2023/03/26 05:06:33;;;;;;;72.18;50.03;;;15.30;75.50;;;;;;4999030;28;89780;-59
2023/03/26 05:09:01;;;;;;;72.57;49.85;;;15.30;75.30;;;;;;4999796;28;90920;-55
2023/03/26 05:11:27;;;;;;;71.93;49.90;;;15.30;75.40;;;;;;4992163;28;91040;-57
2023/03/26 05:13:52;;;;;;;70.38;50.17;;;15.30;75.30;;;;;;4999653;28;89820;-56
2023/03/26 05:16:20;;;;;;;70.22;50.00;;;15.20;75.50;;;;;;4993150;28;89437;-58
2023/03/26 05:18:46;;;;;;;70.75;49.90;;;15.20;75.30;;;;;;4997478;28;89505;-56
2023/03/26 05:21:12;;;;;;;70.45;49.92;;;15.20;75.30;;;;;;4997195;28;90186;-58
2023/03/26 05:23:37;;;;;;;71.57;49.80;;;15.20;75.40;;;;;;5002348;28;90665;-58
2023/03/26 05:26:03;;;;;;;71.22;49.47;;;15.20;75.20;;;;;;5001566;28;90282;-57
2023/03/26 05:28:29;;;;;;;73.30;50.08;;;15.20;75.40;;;;;;4991753;28;91702;-56
2023/03/26 05:30:54;;;;;;;71.30;50.05;;;15.20;75.30;;;;;;4998743;28;92038;-56
2023/03/26 05:33:21;;;;;;;70.90;49.67;;;15.20;75.60;;;;;;5001636;28;89770;-57
2023/03/26 05:35:57;;;;;;;71.00;49.85;;;15.20;75.40;;;;;;4999858;28;89602;-57
2023/03/26 05:38:22;;;;;;;71.18;49.83;;;15.20;75.90;;;;;;4995151;28;90662;-55
2023/03/26 05:40:48;;;;;;;70.85;49.65;;;15.10;75.70;;;;;;4999411;28;89389;-56
2023/03/26 05:43:14;;;;;;;71.95;49.60;;;15.10;75.80;;;;;;4997250;28;90337;-56
2023/03/26 05:45:39;;;;;;;70.22;49.63;;;15.20;75.40;;;;;;5000716;28;89230;-56
2023/03/26 05:48:05;;;;;;;70.80;49.75;;;15.10;75.80;;;;;;4997930;28;90385;-59
2023/03/26 05:50:31;;;;;;;70.20;49.83;;;15.10;75.80;;;;;;4998472;28;90792;-66
2023/03/26 05:52:56;;;;;;;72.63;49.60;;;15.10;75.70;;;;;;4999796;28;90309;-66
2023/03/26 05:55:22;;;;;;;68.97;49.38;;;15.10;75.70;;;;;;5000292;28;89494;-65
2023/03/26 05:57:47;;;;;;;72.32;49.35;;;15.10;75.60;;;;;;5001057;28;89589;-67
2023/03/26 06:00:14;;;;;;;70.47;49.67;;;15.10;76.00;;;;;;5002758;28;89803;-66
2023/03/26 06:02:41;;;;;;;71.90;49.55;;;15.10;76.00;;;;;;5000828;28;89390;-67
2023/03/26 06:05:08;;;;;;;69.03;49.38;;;15.10;75.70;;;;;;4999638;28;90391;-66
2023/03/26 06:07:34;;;;;;;70.35;49.45;;;15.10;75.70;;;;;;4996012;28;90008;-66
2023/03/26 06:10:01;;;;;;;72.28;49.28;;;15.10;75.70;;;;;;4999830;28;89700;-66
2023/03/26 06:12:27;;;;;;;69.15;49.33;;;15.00;75.90;;;;;;4997747;28;89558;-66
2023/03/26 06:14:52;;;;;;;69.47;49.25;;;15.10;75.90;;;;;;5000576;28;89634;-66
2023/03/26 06:17:18;;;;;;;69.90;49.53;;;15.00;75.60;;;;;;4996426;28;91574;-60
2023/03/26 06:19:44;;;;;;;70.38;49.67;;;15.00;75.80;;;;;;4995867;28;91100;-67
2023/03/26 06:22:10;;;;;;;70.57;49.67;;;15.00;75.50;;;;;;4998756;28;90303;-63
2023/03/26 06:24:36;;;;;;;71.30;49.60;;;15.00;75.80;;;;;;5001480;28;89936;-65
2023/03/26 06:27:01;;;;;;;72.43;49.35;;;15.00;75.70;;;;;;5001204;28;89719;-65
2023/03/26 06:29:27;;;;;;;71.13;49.63;;;15.00;75.80;;;;;;4989905;28;90192;-67
2023/03/26 06:31:53;;;;;;;71.95;49.47;;;15.00;75.90;;;;;;4994147;28;92236;-66
2023/03/26 06:34:18;;;;;;;68.90;48.95;;;15.00;75.70;;;;;;4996075;28;88818;-59
2023/03/26 06:36:44;;;;;;;69.88;49.30;;;15.00;75.80;;;;;;5000859;28;90637;-64
2023/03/26 06:39:10;;;;;;;70.97;49.05;;;15.00;75.80;;;;;;4995142;28;89616;-65
2023/03/26 06:41:35;;;;;;;69.85;49.65;;;15.00;75.60;;;;;;4997070;28;90800;-65
2023/03/26 06:44:01;;;;;;;68.97;49.08;;;15.00;75.80;;;;;;5000381;28;89906;-66
2023/03/26 06:46:27;;;;;;;70.65;49.33;;;15.00;75.60;;;;;;5001321;28;90044;-67
2023/03/26 06:48:53;;;;;;;69.30;49.30;;;15.00;75.60;;;;;;5000637;28;89553;-66
2023/03/26 06:51:19;;;;;;;67.55;48.95;;;15.00;75.70;;;;;;5001143;28;89366;-64
2023/03/26 06:53:44;;;;;;;69.10;49.08;;;14.90;75.70;;;;;;4998381;28;90028;-65
2023/03/26 06:56:10;;;;;;;70.28;49.45;;;14.90;75.90;;;;;;4997672;28;90484;-67
2023/03/26 06:58:36;;;;;;;69.57;49.35;;;15.00;75.60;;;;;;5000236;28;89057;-65
2023/03/26 07:01:01;;;;;;;69.13;49.47;;;14.90;75.60;;;;;;4999426;28;89496;-62
2023/03/26 07:03:27;;;;;;;70.05;49.13;;;15.00;75.90;;;;;;5000075;28;89737;-66
2023/03/26 07:05:53;;;;;;;70.57;49.35;;;15.00;75.70;;;;;;4998605;28;90916;-67
2023/03/26 07:08:18;;;;;;;68.95;49.42;;;14.90;75.70;;;;;;4994930;28;90723;-65
2023/03/26 07:10:45;;;;;;;69.45;49.38;;;15.00;75.50;;;;;;4991101;28;90071;-65
2023/03/26 07:13:10;;;;;;;68.45;49.33;;;15.00;75.50;;;;;;4996731;28;89679;-64
2023/03/26 07:15:36;;;;;;;69.28;49.40;;;14.90;75.60;;;;;;4996542;28;91172;-65
2023/03/26 07:18:02;;;;;;;68.50;48.72;;;15.00;75.30;;;;;;4993966;28;90835;-66
2023/03/26 07:20:28;;;;;;;71.78;49.28;;;14.90;75.30;;;;;;4997308;28;89391;-62
2023/03/26 07:22:54;;;;;;;68.88;49.38;;;15.00;75.50;;;;;;4997615;28;89223;-65
2023/03/26 07:25:20;;;;;;;70.13;49.13;;;15.00;75.30;;;;;;4996020;28;89779;-64
2023/03/26 07:27:53;;;;;;;71.30;49.53;;;15.00;75.60;;;;;;4994766;28;89899;-61
2023/03/26 07:30:54;;;;;;;69.05;49.38;;;15.00;75.30;;;;;;4994336;28;90610;-66
2023/03/26 07:33:40;;;;;;;69.20;49.53;;;15.00;75.20;;;;;;4997246;28;93411;-66
2023/03/26 07:36:26;;;;;;;70.03;49.28;;;15.00;75.00;;;;;;4997807;28;90583;-62
2023/03/26 07:39:09;;;;;;;70.05;49.53;;;15.00;74.90;;;;;;4997216;28;92327;-66
2023/03/26 07:42:01;;;;;;;68.10;49.08;;;15.00;75.20;;;;;;4997912;28;90576;-66
2023/03/26 07:44:27;;;;;;;;;;;15.00;75.10;;;;;;5001387;28;89932;-66
2023/03/26 07:46:53;;;;;;;67.80;48.95;;;15.00;75.00;;;;;;5003876;28;89579;-65
2023/03/26 07:49:20;;;;;;;68.32;49.15;;;15.00;74.80;;;;;;4998139;28;90310;-66
2023/03/26 07:51:46;;;;;;;68.25;49.13;;;15.00;74.90;;;;;;4997712;28;89731;-64
2023/03/26 07:54:12;;;;;;;69.18;49.38;;;15.00;74.80;;;;;;4996712;28;89565;-67
2023/03/26 07:56:52;;;;;;;69.38;49.28;;;15.00;75.50;;;;;;4998170;28;90433;-64
2023/03/26 07:59:36;;;;;;;68.57;49.42;;;15.00;74.70;;;;;;4999232;28;90264;-64
2023/03/26 08:02:26;;;;;;;68.95;49.47;;;15.00;74.50;;;;;;4995142;28;90022;-65
2023/03/26 08:05:17;;;;;;;69.18;49.30;;;15.10;74.80;;;;;;4998220;28;89695;-67
2023/03/26 08:08:20;;;;;;;69.05;49.10;;;15.10;74.80;;;;;;4995591;28;89970;-66
2023/03/26 08:10:55;;;;;;;69.95;49.33;;;15.10;74.60;;;;;;4991939;28;92274;-62
2023/03/26 08:13:36;;;;;;;68.93;49.53;;;15.10;74.80;;;;;;4997117;28;90896;-66
2023/03/26 08:16:17;;;;;;;69.90;49.10;;;15.10;74.50;;;;;;4995683;28;88654;-67
2023/03/26 08:18:55;;;;;;;68.40;49.03;;;15.10;74.10;;;;;;4997219;28;90568;-65
2023/03/26 08:21:30;;;;;;;69.22;49.35;;;15.20;74.20;;;;;;4997972;28;89543;-66
2023/03/26 08:23:59;;;;;;;68.40;49.08;;;15.20;73.80;;;;;;4998052;28;90695;-65
2023/03/26 08:26:33;;;;;;;68.88;49.53;;;15.20;74.00;;;;;;4997039;28;89899;-66
2023/03/26 08:29:22;;;;;;;68.50;49.35;;;15.10;74.30;;;;;;4988481;28;91583;-65
2023/03/26 08:31:48;;;;;;;68.43;49.25;;;15.20;74.30;;;;;;4987501;28;89988;-65
2023/03/26 08:34:14;;;;;;;68.60;49.25;;;15.10;74.20;;;;;;4992755;28;91213;-64
2023/03/26 08:36:40;;;;;;;68.50;49.13;;;15.20;74.10;;;;;;4995874;28;90204;-66
2023/03/26 08:39:06;;;;;;;72.07;49.65;;;15.20;73.90;;;;;;4996189;28;90150;-60
2023/03/26 08:42:05;;;;;;;69.25;49.58;;;15.20;73.90;;;;;;4995069;28;89746;-65
2023/03/26 08:44:37;;;;;;;69.53;49.72;;;15.20;73.80;;;;;;4998409;28;89654;-66
2023/03/26 08:47:11;;;;;;;68.93;49.38;;;15.20;73.90;;;;;;4994372;28;89402;-64
2023/03/26 08:50:12;;;;;;;69.38;49.40;;;15.20;73.70;;;;;;4994332;28;90881;-61
2023/03/26 08:52:43;;;;;;;70.43;49.65;;;15.20;73.60;;;;;;4997472;28;93072;-63
2023/03/26 08:55:42;;;;;;;69.70;49.25;;;15.20;73.70;;;;;;4998485;28;93143;-65
2023/03/26 08:58:29;;;;;;;70.00;49.42;;;15.20;73.50;;;;;;4989563;28;90991;-65
2023/03/26 09:01:14;;;;;;;69.13;49.35;;;15.20;73.80;;;;;;4990243;28;90100;-65
2023/03/26 09:03:51;;;;;;;69.68;49.30;;;15.20;73.60;;;;;;4994681;28;89491;-64
2023/03/26 09:06:38;;;;;;;68.60;49.25;;;15.20;73.80;;;;;;4998882;28;89604;-62
2023/03/26 09:09:57;;;;;;;69.00;49.67;;;15.10;74.70;;;;;;4988735;28;88720;-63
2023/03/26 09:12:27;;;;;;;67.90;49.00;;;15.10;74.10;;;;;;4995554;28;90132;-65
2023/03/26 09:15:21;;;;;;;68.72;49.03;;;15.10;74.10;;;;;;4995967;28;90547;-63
2023/03/26 09:18:05;;;;;;;68.63;49.10;;;15.20;74.10;;;;;;4985477;28;91065;-64
2023/03/26 09:20:51;;;;;;;69.25;49.28;;;15.20;74.30;;;;;;4995653;28;90697;-66
2023/03/26 09:23:26;;;;;;;69.72;49.58;;;15.10;74.10;;;;;;4990327;28;89778;-66
2023/03/26 09:25:55;;;;;;;70.47;49.42;;;15.10;74.20;;;;;;4995342;28;90124;-60
2023/03/26 09:28:58;;;;;;;68.95;49.33;;;15.10;74.40;;;;;;5000016;28;89752;-66
2023/03/26 09:31:44;;;;;;;69.70;49.42;;;15.10;74.60;;;;;;4998121;28;89766;-64
2023/03/26 09:34:29;;;;;;;68.90;49.38;;;15.10;74.30;;;;;;5003412;28;89983;-65
2023/03/26 09:37:17;;;;;;;70.07;49.15;;;15.20;75.00;;;;;;4998309;28;90477;-66
2023/03/26 09:40:10;;;;;;;68.47;49.35;;;15.20;74.10;;;;;;4997118;28;91017;-66
2023/03/26 09:42:47;;;;;;;68.70;49.60;;;15.20;74.30;;;;;;4993348;28;90532;-65
2023/03/26 09:45:30;;;;;;;70.78;49.30;;;15.20;73.80;;;;;;4990053;28;91478;-65
2023/03/26 09:48:07;;;;;;;68.30;49.35;;;15.20;74.20;;;;;;4996859;28;91117;-66
2023/03/26 09:50:36;;;;;;;68.47;49.33;;;15.20;74.30;;;;;;4997862;28;90008;-66
2023/03/26 09:53:38;;;;;;;69.20;49.35;;;15.20;74.10;;;;;;4997905;28;90627;-65
2023/03/26 09:56:25;;;;;;;69.15;49.75;;;15.20;74.30;;;;;;4998909;28;90038;-63
2023/03/26 09:59:29;;;;;;;68.97;49.38;;;15.20;74.10;;;;;;4990762;28;90486;-64
2023/03/26 10:02:29;;;;;;;68.68;49.05;;;15.20;74.00;;;;;;4995838;28;89338;-65
2023/03/26 10:05:41;;;;;;;68.47;48.80;;;15.20;74.00;;;;;;4939466;28;89595;-61
2023/03/26 10:08:22;;;;;;;68.80;49.45;;;15.30;74.00;;;;;;4966736;28;89983;-65
2023/03/26 10:10:54;;;;;;;68.43;49.15;;;15.30;73.80;;;;;;4989838;27;90413;-71
2023/03/26 10:13:43;;;;;;;69.15;49.15;;;15.30;73.70;;;;;;4988657;28;90884;-72
2023/03/26 10:16:26;;;;;;;68.05;49.22;;;15.40;73.30;;;;;;4962278;28;92267;-72
2023/03/26 10:19:16;;;;;;;68.75;49.33;;;15.40;73.30;;;;;;4995130;28;90086;-70
2023/03/26 10:21:47;;;;;;;69.18;49.45;;;15.50;72.90;;;;;;4993475;28;90935;-71
2023/03/26 10:24:25;;;;;;;69.38;49.65;;;15.50;72.80;;;;;;4982360;28;90172;-68
2023/03/26 10:27:01;;;;;;;69.00;48.95;;;15.50;72.70;;;;;;4982458;28;89937;-69
2023/03/26 10:29:56;;;;;;;69.90;49.30;;;15.50;72.70;;;;;;4993267;28;91204;-72
2023/03/26 10:32:44;;;;;;;71.00;49.15;;;15.50;72.70;;;;;;4978368;28;89783;-62
2023/03/26 10:35:32;;;;;;;68.88;49.40;;;15.50;72.90;;;;;;4982725;28;89874;-67
2023/03/26 10:38:11;;;;;;;69.28;49.35;;;15.60;72.80;;;;;;4997421;28;89495;-68
2023/03/26 10:40:43;;;;;;;68.57;49.10;;;15.60;73.20;;;;;;4989540;28;91110;-71
2023/03/26 10:43:49;;;;;;;69.45;49.70;;;15.60;73.10;;;;;;4996977;28;90012;-71
2023/03/26 10:46:30;;;;;;;69.60;49.22;;;15.60;73.50;;;;;;4984324;28;90849;-69
2023/03/26 10:49:02;;;;;;;69.28;49.47;;;15.50;73.50;;;;;;4993310;28;93971;-64
2023/03/26 10:51:49;;;;;;;69.00;49.67;;;15.60;73.70;;;;;;4996830;28;90101;-63
2023/03/26 10:54:37;;;;;;;69.30;49.40;;;15.70;73.80;;;;;;4973449;28;92113;-61
2023/03/26 10:57:25;;;;;;;68.78;49.35;;;15.80;74.00;;;;;;4973176;28;92545;-63
2023/03/26 10:59:53;;;;;;;69.07;49.42;;;15.70;74.10;;;;;;4968538;28;90624;-59
2023/03/26 11:02:27;;;;;;;69.43;49.55;;;15.80;74.30;;;;;;4978341;28;90103;-64
2023/03/26 11:05:15;;;;;;;72.30;49.72;;;15.90;74.10;;;;;;4985973;28;93921;-64
2023/03/26 11:08:08;;;;;;;69.53;49.53;;;15.80;74.00;;;;;;4985327;28;92072;-64
2023/03/26 11:10:52;;;;;;;71.13;49.85;;;15.80;73.90;;;;;;4993095;28;89902;-63
2023/03/26 11:13:43;;;;;;;72.93;49.72;;;15.70;73.70;;;;;;4997927;28;90736;-64
2023/03/26 11:16:19;;;;;;;72.68;49.60;;;15.70;74.20;;;;;;4990562;28;89785;-64
2023/03/26 11:19:15;;;;;;;69.63;49.58;;;15.60;74.40;;;;;;4994795;28;93393;-65
2023/03/26 11:21:53;;;;;;;69.25;49.22;;;15.60;74.50;;;;;;5000289;28;90794;-64
2023/03/26 11:24:45;;;;;;;70.53;49.83;;;15.60;74.40;;;;;;4996257;28;92190;-65
2023/03/26 11:27:33;;;;;;;72.05;49.85;;;15.60;74.60;;;;;;4990950;28;89948;-64
2023/03/26 11:30:11;;;;;;;71.15;49.63;;;15.70;74.20;;;;;;4989890;28;90200;-65
2023/03/26 11:32:51;;;;;;;69.63;49.85;;;15.60;74.30;;;;;;4995212;28;90130;-65
2023/03/26 11:35:50;;;;;;;70.65;49.53;;;15.60;74.50;;;;;;4994584;28;90765;-65
2023/03/26 11:38:31;;;;;;;71.05;49.53;;;15.60;74.40;;;;;;4963597;28;90974;-65
2023/03/26 11:41:00;;;;;;;71.00;49.83;;;15.60;74.40;;;;;;4997905;28;90065;-65
2023/03/26 11:43:34;;;;;;;70.78;49.83;;;15.60;74.40;;;;;;4983396;28;95228;-64
2023/03/26 11:46:04;;;;;;;69.78;49.63;;;15.60;74.50;;;;;;4973840;28;90614;-63
2023/03/26 11:48:43;;;;;;;72.75;49.78;;;15.70;74.40;;;;;;4978502;28;90981;-66
2023/03/26 11:51:27;;;;;;;70.78;49.60;;;15.70;74.40;;;;;;4992198;28;92117;-62
2023/03/26 11:53:53;;;;;;;70.60;49.83;;;15.70;74.00;;;;;;4980171;28;91115;-62
2023/03/26 11:56:52;;;;;;;71.93;49.85;;;15.60;74.00;;;;;;4991898;28;89902;-62
2023/03/26 11:59:40;;;;;;;69.43;49.35;;;15.60;74.10;;;;;;4990707;28;89757;-63
2023/03/26 12:02:08;;;;;;;70.55;49.60;;;15.60;74.20;;;;;;4995645;28;92084;-63
2023/03/26 12:04:37;;;;;;;70.45;49.40;;;15.60;74.30;;;;;;4996496;28;89429;-63
2023/03/26 12:07:12;;;;;;;70.25;49.78;;;15.60;74.20;;;;;;4997737;28;90135;-63
2023/03/26 12:09:52;;;;;;;69.78;49.30;;;15.60;73.90;;;;;;4996878;28;92381;-62
2023/03/26 12:12:18;;;;;;;70.38;49.58;;;15.60;73.90;;;;;;4994805;28;89421;-63
2023/03/26 12:14:44;;;;;;;74.10;50.13;;;15.60;74.00;;;;;;4991876;28;90906;-63
2023/03/26 12:17:24;;;;;;;70.45;49.75;;;15.60;73.70;;;;;;4996050;28;92720;-63
2023/03/26 12:19:50;;;;;;;70.47;49.72;;;15.60;73.90;;;;;;4999468;28;89783;-67
2023/03/26 12:22:35;;;;;;;70.25;49.72;;;15.70;74.30;;;;;;4993875;28;89711;-67
2023/03/26 12:25:24;;;;;;;71.10;49.70;;;15.70;74.80;;;;;;4996822;28;90079;-68
2023/03/26 12:27:56;;;;;;;70.75;49.90;;;15.70;74.40;;;;;;4993142;28;91416;-68
2023/03/26 12:30:26;;;;;;;72.32;50.03;;;15.70;74.30;;;;;;4985526;28;96412;-69
2023/03/26 12:32:58;;;;;;;72.50;50.08;;;15.70;74.40;;;;;;4994102;28;89470;-72
2023/03/26 12:35:28;;;;;;;71.57;50.03;;;15.70;74.10;;;;;;4998505;28;89807;-73
2023/03/26 12:37:56;;;;;;;72.57;50.17;;;15.70;73.50;;;;;;4999988;28;90344;-69
2023/03/26 12:40:35;;;;;;;76.60;50.42;;;15.70;74.00;;;;;;4996593;28;90737;-72
2023/03/26 12:43:19;;;;;;;74.60;50.35;;;15.80;74.60;;;;;;4997462;28;89974;-72
2023/03/26 12:45:57;;;;;;;72.13;50.22;;;15.80;74.50;;;;;;4996097;28;89270;-72
2023/03/26 12:48:25;;;;;;;71.63;50.13;;;15.80;75.20;;;;;;4984403;28;91139;-73
2023/03/26 12:51:09;;;;;;;73.00;50.28;;;15.80;75.50;;;;;;4978648;28;90699;-73
2023/03/26 12:53:36;;;;;;;71.78;50.38;;;15.80;75.70;;;;;;4992027;28;91326;-71
2023/03/26 12:56:46;;;;;;;77.40;50.10;;;15.80;74.80;;;;;;4990165;28;89878;-72
2023/03/26 12:59:31;;;;;;;70.70;50.10;;;15.70;74.30;;;;;;4988356;28;90025;-71
2023/03/26 13:02:34;;;;;;;71.95;49.83;;;15.70;74.70;;;;;;4992694;28;89970;-72
2023/03/26 13:05:31;;;;;;;75.78;49.67;;;15.70;74.80;;;;;;5000840;28;89450;-71